Tiempo atmosférico en la estación meteorológica de Abla, Almería (885 m.)



Fecha
DESCASC
Temp. máxima en grados centígrados (hora)
DESCASC
Temp. mínima en grados centígrados (hora)
DESCASC
Temp. media en grados centígrados
DESCASC
Racha de viento máxima en m/sg (hora)
DESCASC
Velocidad máxima media en intervalos de 10 minutos(hora)
DESCASC
Precipitaciones diarias en mm
DESCASC
Precipitaciones de 00:00 a 06:00 en mm
DESCASC
Precipitaciones de 06:00 a 12:00 en mm
DESCASC
Precipitaciones de 12:00 a 18:00 en mm
DESCASC
Precipitaciones de 18:00 a 24:00 en mm
DESCASC
15-08-2019 32.8 (15:10) 19.1 (07:00) 25.9 10.83 (16:40) 5.56 (13:10) 0 0 0 0 0
14-08-2019 30.8 (15:40) 18.4 (00:00) 24.6 10.28 (17:40) 5 (16:20) 0 0 0 0 0
13-08-2019 30.2 (15:30) 19 (00:00) 24.6 11.67 (17:40) 5.56 (16:30) 0 0 0 0 0
12-08-2019 31.2 (13:40) 19.5 (00:00) 25.4 9.44 (17:30) 4.44 (17:50) 0 0 0 0 0
11-08-2019 37.1 (15:10) 23.6 (00:00) 30.3 8.89 (15:50) 4.17 (16:00) 0 0 0 0 0
10-08-2019 36.8 (18:30) 22.8 (00:00) 29.8 11.94 (15:50) 5.56 (16:00) 0 0 0 0 0
09-08-2019 40.1 (14:50) 22.6 (00:00) 31.3 7.22 (07:10) 2.78 (17:50) 0 0 0 0 0
08-08-2019 35.2 (14:50) 22.3 (00:00) 28.8 10.28 (16:50) 5 (16:50) 0 0 0 0 0
07-08-2019 39.7 (16:20) 23.1 (00:00) 31.4 6.11 (14:10) 2.78 (17:30) 0 0 0 0 0
06-08-2019 38.3 (16:00) 22.4 (00:00) 30.3 18.33 (15:20) 6.94 (15:10) 0 0 0 0 0
05-08-2019 33.5 (11:30) 23.1 (00:00) 28.3 12.22 (16:00) 6.39 (14:20) 0 0 0 0 0
04-08-2019 33.8 (13:10) 21.4 (00:00) 27.6 13.06 (17:10) 6.67 (17:10) 0 0 0 0 0
03-08-2019 32.2 (14:50) 19.1 (00:00) 25.7 10.28 (16:10) 5.56 (16:10) 0 0 0 0 0
02-08-2019 32.7 (11:10) 20.7 (00:00) 26.7 11.94 (15:00) 6.39 (15:50) 0 0 0 0 0
01-08-2019 32.2 (16:40) 17.4 (00:00) 24.8 9.44 (17:50) 5.28 (18:00) 0 0 0 0 0
31-07-2019 31.1 (17:30) 20.3 (00:00) 25.7 11.67 (10:30) 6.11 (11:40) 0 0 0 0 0
30-07-2019 32.9 (15:10) 21.3 (00:00) 27.1 11.67 (17:00) 5.56 (17:10) 0 0 0 0 0
29-07-2019 31.8 (14:30) 19 (00:00) 25.4 9.72 (18:20) 4.44 (17:10) 0 0 0 0 0
28-07-2019 29 (15:30) 18.1 (00:00) 23.6 10 (15:20) 5 (11:30) 0 0 0 0 0
27-07-2019 32.9 (15:10) 19.8 (00:00) 26.4 9.44 (17:30) 3.89 (09:50) 0 0 0 0 0
26-07-2019 35.2 (15:50) 20.7 (00:00) 28 8.61 (17:30) 3.33 (18:00) 0 0 0 0 0
25-07-2019 33.4 (14:30) 21 (00:00) 27.2 11.39 (16:00) 5.83 (17:50) 0 0 0 0 0
24-07-2019 34.1 (16:00) 21.8 (00:00) 27.9 12.22 (13:50) 5.28 (13:50) 0 0 0 0 0
23-07-2019 34 (16:30) 22.4 (00:00) 28.2 12.5 (14:10) 5.83 (13:10) 0 0 0 0 0
22-07-2019 33.6 (16:00) 19.4 (00:00) 26.5 10.83 (15:20) 5 (15:50) 0 0 0 0 0
21-07-2019 32.8 (15:30) 21.9 (00:00) 27.3 10.83 (15:20) 5 (15:40) 0 0 0 0 0
20-07-2019 33.7 (13:40) 20.8 (00:00) 27.3 10.28 (18:20) 5 (15:40) 0 0 0 0 0
19-07-2019 32.9 (14:50) 18.3 (00:00) 25.6 10.83 (15:50) 5.28 (14:10) 0 0 0 0 0

Gráficas

Temp. máximas Temp. mínimas Temp. medias Precipitaciones Rachas de viento máximas Velocidades máximas media en intervalos de 10 minutos

Datos horarios

Fecha y hora oficial Temperatura (ºC) Velocidad del viento (km/h) Dirección del viento Racha (km/h) Dirección de racha Precipitación (mm) Presión (hPa) Tendencia (hPa) Humedad (%)
2019-08-17 23:00:00 26.6 3 Noroeste 11 Noroeste 0 -- -- 32
2019-08-17 22:00:00 27.5 7 Norte 20 Este 0 -- -- 31
2019-08-17 21:00:00 28.8 9 Nordeste 31 Este 0 -- -- 30
2019-08-17 20:00:00 30 17 Este 37 Este 0 -- -- 29
2019-08-17 19:00:00 32 17 Nordeste 40 Este 0 -- -- 28
2019-08-17 18:00:00 32.4 19 Nordeste 38 Este 0 -- -- 27
2019-08-17 17:00:00 32.8 18 Nordeste 37 Este 0 -- -- 27
2019-08-17 16:00:00 33.4 20 Este 40 Este 0 -- -- 27
2019-08-17 15:00:00 33.7 19 Este 41 Este 0 -- -- 27
2019-08-17 14:00:00 33.6 18 Este 34 Este 0 -- -- 27
2019-08-17 13:00:00 32.3 19 Este 36 Este 0 -- -- 28
2019-08-17 12:00:00 31.9 14 Nordeste 28 Este 0 -- -- 30
2019-08-17 11:00:00 31.8 4 Nordeste 9 Norte 0 -- -- 31
2019-08-17 10:00:00 29.1 2 Nordeste 5 Nordeste 0 -- -- 35
2019-08-17 09:00:00 26.7 0 Calma 13 Oeste 0 -- -- 39
2019-08-17 08:00:00 22 2 Noroeste 13 Noroeste 0 -- -- 42
2019-08-17 07:00:00 21.5 0 Calma 8 Norte 0 -- -- 43
2019-08-17 06:00:00 20.8 0 Calma 7 Noroeste 0 -- -- 44
2019-08-17 05:00:00 21.1 0 Calma 10 Oeste 0 -- -- 45
2019-08-17 04:00:00 22.3 0 Calma 4 Este 0 -- -- 43
2019-08-17 03:00:00 22.4 0 Calma 14 Oeste 0 -- -- 42
2019-08-17 02:00:00 24.8 0 Calma 8 Noroeste 0 -- -- 40
2019-08-17 01:00:00 23.5 8 Noroeste 10 Oeste 0 -- -- 43
2019-08-17 00:00:00 24.8 3 Oeste 6 Oeste 0 -- -- 43
2019-08-16 23:00:00 25.4 0 Calma 9 Este 0 -- -- 42
2019-08-16 22:00:00 25.8 4 Nordeste 23 Este 0 -- -- 41
2019-08-16 21:00:00 26.9 14 Este 33 Este 0 -- -- 38
2019-08-16 20:00:00 28.5 19 Este 39 Nordeste 0 -- -- 33
2019-08-16 19:00:00 30.4 17 Nordeste 44 Este 0 -- -- 32
2019-08-16 18:00:00 31 18 Nordeste 42 Este 0 -- -- 31
2019-08-16 17:00:00 31.4 16 Nordeste 40 Este 0 -- -- 30
2019-08-16 16:00:00 31.9 19 Nordeste 37 Este 0 -- -- 29
2019-08-16 15:00:00 32.4 16 Nordeste 37 Nordeste 0 -- -- 29
2019-08-16 14:00:00 32 19 Este 35 Este 0 -- -- 29
2019-08-16 13:00:00 30.8 16 Nordeste 30 Este 0 -- -- 29
2019-08-16 12:00:00 29.7 12 Nordeste 23 Este 0 -- -- 32
2019-08-16 11:00:00 27.9 9 Nordeste 19 Este 0 -- -- 35
2019-08-16 10:00:00 26.7 7 Nordeste 15 Nordeste 0 -- -- 38
2019-08-16 09:00:00 23 2 Nordeste 6 Oeste 0 -- -- 44
2019-08-16 08:00:00 21.8 0 Calma 7 Oeste 0 -- -- 45
2019-08-16 07:00:00 20.5 0 Calma 7 Oeste 0 -- -- 46
2019-08-16 06:00:00 21.4 3 Noroeste 9 Oeste 0 -- -- 43
2019-08-16 05:00:00 22.1 3 Noroeste 6 Noroeste 0 -- -- 43
2019-08-16 04:00:00 22.1 0 Calma 12 Oeste 0 -- -- 43
2019-08-16 03:00:00 21.5 4 Noroeste 10 Oeste 0 -- -- 44
2019-08-16 02:00:00 21.8 6 Noroeste 10 Noroeste 0 -- -- 44
2019-08-16 01:00:00 23.4 2 Noroeste 8 Noroeste 0 -- -- 42
2019-08-16 00:00:00 24.1 2 Noroeste 9 Noroeste 0 -- -- 40
2019-08-15 23:00:00 24.3 0 Calma 14 Este 0 -- -- 42
2019-08-15 22:00:00 25.2 10 Nordeste 25 Este 0 -- -- 39
2019-08-15 21:00:00 26.5 15 Este 37 Este 0 -- -- 35
2019-08-15 20:00:00 27.9 17 Nordeste 35 Este 0 -- -- 31
2019-08-15 19:00:00 29.8 15 Nordeste 35 Este 0 -- -- 28
2019-08-15 18:00:00 30.4 16 Nordeste 37 Este 0 -- -- 27
2019-08-15 17:00:00 30.9 18 Nordeste 39 Nordeste 0 -- -- 27
2019-08-15 16:00:00 31.3 16 Nordeste 35 Este 0 -- -- 27
2019-08-15 15:00:00 32.2 18 Nordeste 37 Nordeste 0 -- -- 27
2019-08-15 14:00:00 31.1 17 Nordeste 36 Este 0 -- -- 27
2019-08-15 13:00:00 30.3 19 Este 33 Nordeste 0 -- -- 31
2019-08-15 12:00:00 30.2 17 Este 35 Este 0 -- -- 33
2019-08-15 11:00:00 29.2 9 Nordeste 20 Nordeste 0 -- -- 37
2019-08-15 10:00:00 27.6 3 Nordeste 7 Nordeste 0 -- -- 40
2019-08-15 09:00:00 24.6 0 Calma 7 Oeste 0 -- -- 46
2019-08-15 08:00:00 20.5 7 Noroeste 10 Noroeste 0 -- -- 52
2019-08-15 07:00:00 19.7 0 Calma 5 Noroeste 0 -- -- 53
2019-08-15 06:00:00 20.9 0 Calma 10 Noroeste 0 -- -- 50
2019-08-15 05:00:00 20.4 0 Calma 9 Norte 0 -- -- 52
2019-08-15 04:00:00 20.9 0 Calma 7 Noroeste 0 -- -- 53
2019-08-15 03:00:00 22.2 2 Oeste 9 Oeste 0 -- -- 54
2019-08-15 02:00:00 22 5 Oeste 8 Noroeste 0 -- -- 55
2019-08-15 01:00:00 22.6 0 Calma 5 Noroeste 0 -- -- 55
2019-08-15 00:00:00 23.1 0 Calma 5 Nordeste 0 -- -- 53
2019-08-14 23:00:00 23.6 3 Nordeste 9 Nordeste 0 -- -- 53
2019-08-14 22:00:00 24.3 5 Nordeste 19 Este 0 -- -- 51
2019-08-14 21:00:00 25.1 10 Nordeste 25 Este 0 -- -- 48
2019-08-14 20:00:00 26.2 13 Nordeste 32 Nordeste 0 -- -- 46
2019-08-14 19:00:00 28.1 16 Nordeste 33 Este 0 -- -- 42
2019-08-14 18:00:00 29.1 17 Este 37 Este 0 -- -- 39
2019-08-14 17:00:00 29.1 17 Nordeste 34 Este 0 -- -- 40
2019-08-14 16:00:00 30.4 15 Nordeste 30 Nordeste 0 -- -- 38
2019-08-14 15:00:00 29.6 16 Nordeste 35 Este 0 -- -- 37
2019-08-14 14:00:00 29 16 Nordeste 29 Este 0 -- -- 36
2019-08-14 13:00:00 27.7 15 Nordeste 28 Este 0 -- -- 41
2019-08-14 12:00:00 27.2 11 Nordeste 26 Este 0 -- -- 45
2019-08-14 11:00:00 25.3 9 Nordeste 18 Nordeste 0 -- -- 52
2019-08-14 10:00:00 24.7 3 Nordeste 9 Este 0 -- -- 60
2019-08-14 09:00:00 22 2 Nordeste 10 Noroeste 0 -- -- 57
2019-08-14 08:00:00 19.1 3 Noroeste 10 Noroeste 0 -- -- 55
2019-08-14 07:00:00 18.7 2 Norte 9 Norte 0 -- -- 60
2019-08-14 06:00:00 18.7 2 Norte 13 Noroeste 0 -- -- 63
2019-08-14 05:00:00 18.9 4 Noroeste 13 Noroeste 0 -- -- 68
2019-08-14 04:00:00 19.8 4 Norte 14 Norte 0 -- -- 70
2019-08-14 03:00:00 20.9 3 Norte 12 Noroeste 0 -- -- 65
2019-08-14 02:00:00 19.9 2 Norte 6 Este 0 -- -- 86
2019-08-14 01:00:00 20.5 2 Nordeste 8 Nordeste 0 -- -- 89
2019-08-14 00:00:00 21.2 4 Nordeste 15 Este 0 -- -- 88
2019-08-13 23:00:00 21.7 8 Este 20 Este 0 -- -- 86
2019-08-13 22:00:00 21.9 12 Este 28 Este 0 -- -- 83
2019-08-13 21:00:00 22.6 16 Este 35 Este 0 -- -- 79
2019-08-13 20:00:00 23.9 19 Este 37 Nordeste 0 -- -- 68
2019-08-13 19:00:00 26.3 15 Este 34 Este 0 -- -- 55
2019-08-13 18:00:00 27.4 15 Nordeste 42 Este 0 -- -- 52
2019-08-13 17:00:00 27.3 18 Nordeste 39 Nordeste 0 -- -- 51
2019-08-13 16:00:00 28.9 17 Nordeste 37 Este 0 -- -- 41
2019-08-13 15:00:00 28.8 15 Nordeste 31 Este 0 -- -- 39
2019-08-13 14:00:00 28.7 11 Nordeste 28 Nordeste 0 -- -- 38
2019-08-13 13:00:00 29.1 9 Nordeste 24 Este 0 -- -- 38
2019-08-13 12:00:00 26.8 9 Nordeste 24 Este 0 -- -- 44
2019-08-13 11:00:00 25.6 12 Nordeste 25 Este 0 -- -- 49
2019-08-13 10:00:00 24.4 11 Nordeste 24 Nordeste 0 -- -- 57
2019-08-13 09:00:00 22.3 7 Nordeste 15 Este 0 -- -- 69
2019-08-13 08:00:00 19.1 7 Nordeste 13 Este 0 -- -- 82
2019-08-13 07:00:00 19.8 0 Calma 10 Norte 0 -- -- 75
2019-08-13 06:00:00 20.1 5 Nordeste 14 Este 0 -- -- 80
2019-08-13 05:00:00 19.9 8 Nordeste 16 Este 0 -- -- 82
2019-08-13 04:00:00 19.9 8 Nordeste 17 Este 0 -- -- 82
2019-08-13 03:00:00 20.1 7 Nordeste 18 Este 0 -- -- 85
2019-08-13 02:00:00 20.9 7 Este 15 Este 0 -- -- 83
2019-08-13 01:00:00 21.1 5 Este 14 Este 0 -- -- 82
2019-08-13 00:00:00 21.1 8 Este 18 Este 0 -- -- 80
2019-08-12 23:00:00 21.7 10 Este 23 Nordeste 0 -- -- 75
2019-08-12 22:00:00 22.7 10 Este 20 Nordeste 0 -- -- 60
2019-08-12 21:00:00 24.5 12 Nordeste 28 Este 0 -- -- 46
2019-08-12 20:00:00 25.7 14 Nordeste 31 Este 0 -- -- 40
2019-08-12 19:00:00 27.6 13 Nordeste 31 Este 0 -- -- 36
2019-08-12 18:00:00 27.7 14 Este 34 Este 0 -- -- 37
2019-08-12 17:00:00 27.4 15 Nordeste 33 Nordeste 0 -- -- 35
2019-08-12 16:00:00 27.5 14 Nordeste 31 Este 0 -- -- 33
2019-08-12 15:00:00 29 13 Nordeste 28 Este 0 -- -- 31
2019-08-12 14:00:00 29 3 Norte 13 Nordeste 0 -- -- 28
2019-08-12 13:00:00 29.3 3 Nordeste 14 Noroeste 0 -- -- 28
2019-08-12 12:00:00 28.6 4 Nordeste 13 Norte 0 -- -- 28
2019-08-12 11:00:00 27.2 6 Noroeste 19 Norte 0 -- -- 29
2019-08-12 10:00:00 26.2 6 Noroeste 17 Noroeste 0 -- -- 31
2019-08-12 09:00:00 24.1 5 Norte 12 Norte 0 -- -- 32
2019-08-12 08:00:00 20.7 5 Noroeste 17 Norte 0 -- -- 34
2019-08-12 07:00:00 19.6 6 Noroeste 13 Oeste 0 -- -- 34
2019-08-12 06:00:00 20.8 4 Norte 15 Noroeste 0 -- -- 33
2019-08-12 05:00:00 21.6 4 Noroeste 12 Oeste 0 -- -- 33
2019-08-12 04:00:00 23.2 3 Noroeste 26 Noroeste 0 -- -- 32
2019-08-12 03:00:00 23.8 6 Norte 19 Norte 0 -- -- 32
2019-08-12 02:00:00 23.6 4 Norte 8 Norte 0 -- -- 32
2019-08-12 01:00:00 25.3 3 Norte 13 Noroeste 0 -- -- 31
2019-08-12 00:00:00 26.3 3 Norte 12 Norte 0 -- -- 31
2019-08-11 23:00:00 27.6 3 Noroeste 14 Noroeste 0 -- -- 30
2019-08-11 22:00:00 28.6 6 Norte 16 Norte 0 -- -- 29
2019-08-11 21:00:00 29.8 7 Noroeste 16 Noroeste 0 -- -- 29
2019-08-11 20:00:00 31.4 8 Noroeste 22 Noroeste 0 -- -- 28
2019-08-11 19:00:00 34 7 Noroeste 21 Norte 0 -- -- 26
2019-08-11 18:00:00 35.6 8 Noroeste 26 Nordeste 0 -- -- 27
2019-08-11 17:00:00 32.8 8 Nordeste 31 Nordeste 0 -- -- 36
2019-08-11 16:00:00 31.6 15 Nordeste 32 Este 0 -- -- 35
2019-08-11 15:00:00 35.6 3 Norte 18 Noroeste 0 -- -- 27
2019-08-11 14:00:00 35.5 4 Norte 17 Norte 0 -- -- 30
2019-08-11 13:00:00 34.7 4 Sur 15 Norte 0 -- -- 31
2019-08-11 12:00:00 31.8 4 Norte 19 Noroeste 0 -- -- 36
2019-08-11 11:00:00 28.2 0 Calma 24 Oeste 0 -- -- 41
2019-08-11 10:00:00 25.8 4 Norte 19 Noroeste 0 -- -- 48
2019-08-11 09:00:00 24.5 5 Norte 14 Noroeste 0 -- -- 48
2019-08-11 08:00:00 23.9 4 Noroeste 12 Norte 0 -- -- 48
2019-08-11 07:00:00 24.1 2 Noroeste 8 Noroeste 0 -- -- 45
2019-08-11 06:00:00 24.2 4 Noroeste 10 Oeste 0 -- -- 39
2019-08-11 05:00:00 24 3 Noroeste 8 Noroeste 0 -- -- 38
2019-08-11 04:00:00 24.3 3 Noroeste 10 Oeste 0 -- -- 39
2019-08-11 03:00:00 24.8 5 Noroeste 10 Noroeste 0 -- -- 38
2019-08-11 02:00:00 24.5 4 Noroeste 10 Oeste 0 -- -- 40
2019-08-11 01:00:00 25.3 2 Noroeste 6 Noroeste 0 -- -- 37
2019-08-11 00:00:00 26.4 2 Norte 12 Nordeste 0 -- -- 37
2019-08-10 23:00:00 26.9 5 Nordeste 14 Nordeste 0 -- -- 36
2019-08-10 22:00:00 28.7 9 Nordeste 21 Este 0 -- -- 31
2019-08-10 21:00:00 31.5 10 Este 25 Nordeste 0 -- -- 27
2019-08-10 20:00:00 33 13 Nordeste 29 Este 0 -- -- 27
2019-08-10 19:00:00 35.9 8 Este 23 Sudeste 0 -- -- 25
2019-08-10 18:00:00 35.8 10 Este 30 Este 0 -- -- 25
2019-08-10 17:00:00 35.5 14 Este 37 Este 0 -- -- 25
2019-08-10 16:00:00 35.6 20 Este 43 Este 0 -- -- 24
2019-08-10 15:00:00 35.9 17 Este 37 Este 0 -- -- 24
2019-08-10 14:00:00 34.6 16 Nordeste 35 Nordeste 0 -- -- 25
2019-08-10 13:00:00 33.9 13 Nordeste 26 Este 0 -- -- 25
2019-08-10 12:00:00 33.6 7 Nordeste 17 Este 0 -- -- 27
2019-08-10 11:00:00 31 3 Nordeste 12 Nordeste 0 -- -- 34
2019-08-10 10:00:00 28.6 5 Norte 14 Noroeste 0 -- -- 38
2019-08-10 09:00:00 25.8 6 Noroeste 17 Norte 0 -- -- 40
2019-08-10 08:00:00 23.2 5 Noroeste 18 Norte 0 -- -- 42
2019-08-10 07:00:00 23.1 8 Noroeste 23 Noroeste 0 -- -- 41
2019-08-10 06:00:00 24 8 Noroeste 21 Norte 0 -- -- 39
2019-08-10 05:00:00 24.3 5 Noroeste 15 Noroeste 0 -- -- 37
2019-08-10 04:00:00 25 5 Norte 16 Norte 0 -- -- 34
2019-08-10 03:00:00 25.8 6 Noroeste 17 Noroeste 0 -- -- 31
2019-08-10 02:00:00 26.7 7 Noroeste 15 Noroeste 0 -- -- 28
2019-08-10 01:00:00 27.6 6 Noroeste 18 Norte 0 -- -- 26
2019-08-10 00:00:00 28.3 6 Noroeste 13 Noroeste 0 -- -- 24
2019-08-09 23:00:00 30 3 Noroeste 13 Noroeste 0 -- -- 22
2019-08-09 22:00:00 31.7 3 Norte 14 Norte 0 -- -- 20
2019-08-09 21:00:00 33.2 6 Noroeste 18 Norte 0 -- -- 19
2019-08-09 20:00:00 35.1 7 Noroeste 18 Noroeste 0 -- -- 19
2019-08-09 19:00:00 37.6 8 Noroeste 22 Sur 0 -- -- 18
2019-08-09 18:00:00 38.7 6 Noroeste 22 Noroeste 0 -- -- 17
2019-08-09 17:00:00 37.6 5 Noroeste 19 Norte 0 -- -- 17
2019-08-09 16:00:00 40 8 Norte 19 Noroeste 0 -- -- 16
2019-08-09 15:00:00 39 4 Norte 13 Norte 0 -- -- 18
2019-08-09 14:00:00 38.2 4 Norte 19 Noroeste 0 -- -- 19
2019-08-09 13:00:00 36.6 4 Norte 15 Noroeste 0 -- -- 21
2019-08-09 12:00:00 34.3 3 Norte 17 Norte 0 -- -- 23
2019-08-09 11:00:00 31.6 5 Norte 22 Norte 0 -- -- 27
2019-08-09 10:00:00 28.8 4 Noroeste 11 Norte 0 -- -- 32
2019-08-09 09:00:00 26.5 2 Nordeste 13 Oeste 0 -- -- 34
2019-08-09 08:00:00 23.1 6 Noroeste 26 Oeste 0 -- -- 35
2019-08-09 07:00:00 23.3 4 Noroeste 12 Noroeste 0 -- -- 35
2019-08-09 06:00:00 23.9 4 Norte 12 Noroeste 0 -- -- 34
2019-08-09 05:00:00 24 8 Oeste 16 Oeste 0 -- -- 34
2019-08-09 04:00:00 23.9 3 Noroeste 14 Noroeste 0 -- -- 34
2019-08-09 03:00:00 24 3 Noroeste 12 Oeste 0 -- -- 34
2019-08-09 02:00:00 24.9 5 Noroeste 11 Noroeste 0 -- -- 34
2019-08-09 01:00:00 25 2 Noroeste 9 Noroeste 0 -- -- 35
2019-08-09 00:00:00 26.1 2 Noroeste 6 Oeste 0 -- -- 35
2019-08-08 23:00:00 26.6 3 Noroeste 6 Noroeste 0 -- -- 33
2019-08-08 22:00:00 27.2 2 Nordeste 15 Este 0 -- -- 32
2019-08-08 21:00:00 28.7 7 Nordeste 22 Este 0 -- -- 31
2019-08-08 20:00:00 30.5 8 Nordeste 27 Nordeste 0 -- -- 29
2019-08-08 19:00:00 32.1 11 Nordeste 25 Este 0 -- -- 27
2019-08-08 18:00:00 32.3 14 Nordeste 31 Nordeste 0 -- -- 27
2019-08-08 17:00:00 32.4 15 Nordeste 37 Este 0 -- -- 27
2019-08-08 16:00:00 33.8 16 Nordeste 33 Nordeste 0 -- -- 27
2019-08-08 15:00:00 34.3 13 Nordeste 35 Nordeste 0 -- -- 26
2019-08-08 14:00:00 33.7 14 Nordeste 35 Este 0 -- -- 26
2019-08-08 13:00:00 32.6 14 Nordeste 32 Este 0 -- -- 25
2019-08-08 12:00:00 31.8 12 Nordeste 23 Este 0 -- -- 27
2019-08-08 11:00:00 29.8 2 Nordeste 11 Nordeste 0 -- -- 31
2019-08-08 10:00:00 27.8 4 Noroeste 8 Norte 0 -- -- 34
2019-08-08 09:00:00 25.6 5 Noroeste 16 Noroeste 0 -- -- 35
2019-08-08 08:00:00 22.7 8 Noroeste 18 Norte 0 -- -- 35
2019-08-08 07:00:00 22.8 8 Noroeste 20 Noroeste 0 -- -- 35
2019-08-08 06:00:00 23.4 8 Norte 16 Noroeste 0 -- -- 33
2019-08-08 05:00:00 23.7 5 Norte 16 Noroeste 0 -- -- 32
2019-08-08 04:00:00 24.6 9 Noroeste 19 Norte 0 -- -- 31
2019-08-08 03:00:00 25.3 6 Noroeste 15 Norte 0 -- -- 28
2019-08-08 02:00:00 26.6 4 Norte 14 Noroeste 0 -- -- 25
2019-08-08 01:00:00 27.9 4 Norte 13 Noroeste 0 -- -- 21
2019-08-08 00:00:00 28.6 3 Noroeste 10 Norte 0 -- -- 20
2019-08-07 23:00:00 29.1 5 Noroeste 16 Oeste 0 -- -- 20
2019-08-07 22:00:00 30.3 4 Norte 14 Noroeste 0 -- -- 19
2019-08-07 21:00:00 32 5 Noroeste 16 Norte 0 -- -- 19
2019-08-07 20:00:00 33.1 8 Noroeste 17 Norte 0 -- -- 19
2019-08-07 19:00:00 34.1 6 Noroeste 17 Noroeste 0 -- -- 16
2019-08-07 18:00:00 37 6 Noroeste 22 Norte 0 -- -- 14
2019-08-07 17:00:00 38.6 5 Norte 16 Norte 0 -- -- 14
2019-08-07 16:00:00 37.6 5 Noroeste 14 Nordeste 0 -- -- 15
2019-08-07 15:00:00 36.6 5 Norte 22 Sudoeste 0 -- -- 16
2019-08-07 14:00:00 37.6 0 Calma 17 Norte 0 -- -- 18
2019-08-07 13:00:00 36 6 Norte 18 Norte 0 -- -- 20
2019-08-07 12:00:00 33.4 6 Norte 20 Norte 0 -- -- 23
2019-08-07 11:00:00 30.5 6 Norte 15 Noroeste 0 -- -- 26
2019-08-07 10:00:00 28.6 2 Nordeste 10 Noroeste 0 -- -- 28
2019-08-07 09:00:00 26.4 6 Noroeste 14 Norte 0 -- -- 31
2019-08-07 08:00:00 23.7 5 Noroeste 15 Norte 0 -- -- 32
2019-08-07 07:00:00 23.1 8 Noroeste 17 Oeste 0 -- -- 32
2019-08-07 06:00:00 24.3 8 Noroeste 14 Noroeste 0 -- -- 31
2019-08-07 05:00:00 24.5 5 Noroeste 15 Noroeste 0 -- -- 31
2019-08-07 04:00:00 25 5 Noroeste 15 Noroeste 0 -- -- 31
2019-08-07 03:00:00 26 4 Noroeste 9 Nordeste 0 -- -- 30
2019-08-07 02:00:00 27.8 2 Norte 10 Oeste 0 -- -- 31
2019-08-07 01:00:00 27.1 3 Oeste 9 Noroeste 0 -- -- 43
2019-08-07 00:00:00 25.5 4 Noroeste 9 Norte 0 -- -- 50
2019-08-06 23:00:00 25.6 5 Nordeste 19 Nordeste 0 -- -- 50
2019-08-06 22:00:00 27.1 9 Nordeste 23 Este 0 -- -- 42
2019-08-06 21:00:00 34.7 3 Noroeste 24 Sudoeste 0 -- -- 22
2019-08-06 20:00:00 36 6 Noroeste 36 Noroeste 0 -- -- 21
2019-08-06 19:00:00 37 12 Noroeste 40 Noroeste 0 -- -- 21
2019-08-06 18:00:00 37.6 13 Noroeste 47 Norte 0 -- -- 21
2019-08-06 17:00:00 37.9 10 Noroeste 53 Noroeste 0 -- -- 22
2019-08-06 16:00:00 37.3 10 Noroeste 66 Norte 0 -- -- 23
2019-08-06 15:00:00 36.7 18 Noroeste 50 Noroeste 0 -- -- 23
2019-08-06 14:00:00 37.6 6 Nordeste 30 Nordeste 0 -- -- 24
2019-08-06 13:00:00 34 14 Nordeste 25 Este 0 -- -- 30
2019-08-06 12:00:00 33 8 Nordeste 17 Nordeste 0 -- -- 28
2019-08-06 11:00:00 31.6 4 Nordeste 8 Norte 0 -- -- 31
2019-08-06 10:00:00 29.5 2 Nordeste 13 Oeste 0 -- -- 36
2019-08-06 09:00:00 26.3 4 Noroeste 16 Noroeste 0 -- -- 42
2019-08-06 08:00:00 22.8 6 Noroeste 18 Oeste 0 -- -- 45
2019-08-06 07:00:00 22.6 6 Norte 17 Norte 0 -- -- 45
2019-08-06 06:00:00 23.3 4 Norte 17 Oeste 0 -- -- 45
2019-08-06 05:00:00 23.3 4 Noroeste 9 Norte 0 -- -- 47
2019-08-06 04:00:00 23.7 0 Calma 11 Oeste 0 -- -- 46
2019-08-06 03:00:00 24.6 6 Noroeste 13 Oeste 0 -- -- 46
2019-08-06 02:00:00 26.2 3 Noroeste 9 Oeste 0 -- -- 46
2019-08-06 01:00:00 24.7 2 Norte 10 Oeste 0 -- -- 53
2019-08-06 00:00:00 23.5 2 Noroeste 9 Nordeste 0 -- -- 56
2019-08-05 23:00:00 24.4 5 Nordeste 14 Este 0 -- -- 53
2019-08-05 22:00:00 24.9 7 Nordeste 26 Este 0 -- -- 50
2019-08-05 21:00:00 27.8 11 Este 26 Este 0 -- -- 40
2019-08-05 20:00:00 29.9 12 Este 26 Nordeste 0 -- -- 38
2019-08-05 19:00:00 30.9 14 Nordeste 35 Nordeste 0 -- -- 37
2019-08-05 18:00:00 31.6 15 Nordeste 39 Nordeste 0 -- -- 36
2019-08-05 17:00:00 31 21 Nordeste 40 Este 0 -- -- 38
2019-08-05 16:00:00 31.8 22 Nordeste 44 Nordeste 0 -- -- 37
2019-08-05 15:00:00 32.6 21 Este 40 Este 0 -- -- 35
2019-08-05 14:00:00 32.3 17 Nordeste 38 Este 0 -- -- 35
2019-08-05 13:00:00 32 15 Nordeste 33 Nordeste 0 -- -- 34
2019-08-05 12:00:00 30.9 11 Nordeste 28 Nordeste 0 -- -- 34
2019-08-05 11:00:00 31.5 3 Nordeste 6 Norte 0 -- -- 30
2019-08-05 10:00:00 29.8 2 Nordeste 10 Este 0 -- -- 35
2019-08-05 09:00:00 27.3 0 Calma 11 Noroeste 0 -- -- 39
2019-08-05 08:00:00 24.3 3 Norte 12 Noroeste 0 -- -- 42
2019-08-05 07:00:00 23.5 4 Noroeste 15 Norte 0 -- -- 44
2019-08-05 06:00:00 24.3 6 Norte 15 Noroeste 0 -- -- 44
2019-08-05 05:00:00 24.1 4 Norte 13 Noroeste 0 -- -- 45
2019-08-05 04:00:00 24.1 2 Noroeste 12 Noroeste 0 -- -- 46
2019-08-05 03:00:00 24.8 5 Noroeste 16 Oeste 0 -- -- 47
2019-08-05 02:00:00 23.5 8 Noroeste 12 Oeste 0 -- -- 53
2019-08-05 01:00:00 24.1 3 Noroeste 7 Oeste 0 -- -- 54
2019-08-05 00:00:00 24.8 3 Nordeste 9 Este 0 -- -- 50
2019-08-04 23:00:00 25.7 4 Nordeste 14 Nordeste 0 -- -- 47
2019-08-04 22:00:00 26.8 7 Este 17 Nordeste 0 -- -- 42
2019-08-04 21:00:00 28.4 8 Nordeste 18 Este 0 -- -- 40
2019-08-04 20:00:00 29 10 Nordeste 28 Este 0 -- -- 39
2019-08-04 19:00:00 29.9 17 Este 42 Este 0 -- -- 38
2019-08-04 18:00:00 30.2 19 Nordeste 47 Este 0 -- -- 38
2019-08-04 17:00:00 30.3 21 Nordeste 41 Este 0 -- -- 37
2019-08-04 16:00:00 31.7 19 Nordeste 40 Nordeste 0 -- -- 34
2019-08-04 15:00:00 32 17 Nordeste 34 Nordeste 0 -- -- 33
2019-08-04 14:00:00 32.1 14 Nordeste 28 Nordeste 0 -- -- 33
2019-08-04 13:00:00 32.8 8 Nordeste 18 Nordeste 0 -- -- 28
2019-08-04 12:00:00 31.5 6 Nordeste 17 Nordeste 0 -- -- 29
2019-08-04 11:00:00 31.3 4 Nordeste 13 Este 0 -- -- 28
2019-08-04 10:00:00 28.3 7 Noroeste 15 Noroeste 0 -- -- 36
2019-08-04 09:00:00 24.8 6 Norte 19 Norte 0 -- -- 45
2019-08-04 08:00:00 22.9 10 Noroeste 23 Norte 0 -- -- 50
2019-08-04 07:00:00 22.4 3 Noroeste 14 Norte 0 -- -- 51
2019-08-04 06:00:00 21.8 6 Noroeste 12 Norte 0 -- -- 64
2019-08-04 05:00:00 21.6 5 Oeste 8 Oeste 0 -- -- 79
2019-08-04 04:00:00 21.6 4 Noroeste 12 Noroeste 0 -- -- 85
2019-08-04 03:00:00 22.1 4 Noroeste 10 Noroeste 0 -- -- 86
2019-08-04 02:00:00 21.6 4 Nordeste 15 Nordeste 0 -- -- 92
2019-08-04 01:00:00 22 4 Nordeste 10 Este 0 -- -- 90
2019-08-04 00:00:00 22.4 2 Nordeste 15 Nordeste 0 -- -- 88
2019-08-03 23:00:00 23.3 6 Nordeste 21 Nordeste 0 -- -- 82
2019-08-03 22:00:00 25.4 8 Este 17 Este 0 -- -- 69
2019-08-03 21:00:00 26.6 9 Nordeste 23 Este 0 -- -- 64
2019-08-03 20:00:00 27.2 10 Nordeste 32 Este 0 -- -- 61
2019-08-03 19:00:00 28.5 17 Este 34 Este 0 -- -- 55
2019-08-03 18:00:00 29 19 Este 37 Este 0 -- -- 52
2019-08-03 17:00:00 29.6 19 Nordeste 37 Este 0 -- -- 46
2019-08-03 16:00:00 30.7 19 Este 36 Nordeste 0 -- -- 43
2019-08-03 15:00:00 31.9 16 Nordeste 34 Este 0 -- -- 39
2019-08-03 14:00:00 30.9 14 Nordeste 27 Nordeste 0 -- -- 42
2019-08-03 13:00:00 29.6 10 Nordeste 30 Nordeste 0 -- -- 46
2019-08-03 12:00:00 28.2 12 Nordeste 25 Este 0 -- -- 49
2019-08-03 11:00:00 27 10 Nordeste 19 Este 0 -- -- 56
2019-08-03 10:00:00 26.1 2 Norte 9 Norte 0 -- -- 63
2019-08-03 09:00:00 22.8 2 Norte 8 Norte 0 -- -- 72
2019-08-03 08:00:00 20.9 0 Calma 6 Norte 0 -- -- 75
2019-08-03 07:00:00 20 2 Nordeste 9 Noroeste 0 -- -- 80
2019-08-03 06:00:00 20.8 0 Calma 9 Oeste 0 -- -- 72
2019-08-03 05:00:00 21.2 0 Calma 5 Oeste 0 -- -- 70
2019-08-03 04:00:00 21.1 4 Oeste 9 Oeste 0 -- -- 82
2019-08-03 03:00:00 20.6 3 Noroeste 6 Noroeste 0 -- -- 82
2019-08-03 02:00:00 22 0 Calma 5 Noroeste 0 -- -- 81
2019-08-03 01:00:00 21.9 0 Calma 5 Oeste 0 -- -- 82
2019-08-03 00:00:00 22.4 0 Calma 13 Nordeste 0 -- -- 80
2019-08-02 23:00:00 22.9 6 Nordeste 23 Nordeste 0 -- -- 76
2019-08-02 22:00:00 24.7 10 Nordeste 23 Nordeste 0 -- -- 61
2019-08-02 21:00:00 28.3 12 Nordeste 29 Nordeste 0 -- -- 44
2019-08-02 20:00:00 29.1 15 Este 30 Nordeste 0 -- -- 43
2019-08-02 19:00:00 30.5 16 Nordeste 32 Este 0 -- -- 43
2019-08-02 18:00:00 30.8 15 Nordeste 36 Este 0 -- -- 43
2019-08-02 17:00:00 30.4 16 Nordeste 39 Este 0 -- -- 44
2019-08-02 16:00:00 30.5 19 Nordeste 40 Este 0 -- -- 46
2019-08-02 15:00:00 29.4 22 Nordeste 43 Nordeste 0 -- -- 46
2019-08-02 14:00:00 30 19 Este 33 Nordeste 0 -- -- 44
2019-08-02 13:00:00 29.5 15 Nordeste 31 Este 0 -- -- 43
2019-08-02 12:00:00 29.9 12 Nordeste 27 Este 0 -- -- 42
2019-08-02 11:00:00 32.3 3 Nordeste 16 Noroeste 0 -- -- 37
2019-08-02 10:00:00 28.9 4 Norte 13 Noroeste 0 -- -- 43
2019-08-02 09:00:00 26.1 8 Noroeste 17 Norte 0 -- -- 52
2019-08-02 08:00:00 22.9 8 Noroeste 18 Noroeste 0 -- -- 59
2019-08-02 07:00:00 22.3 7 Noroeste 16 Noroeste 0 -- -- 61
2019-08-02 06:00:00 23.3 4 Noroeste 13 Oeste 0 -- -- 60
2019-08-02 05:00:00 21.5 0 Calma 12 Oeste 0 -- -- 73
2019-08-02 04:00:00 20.8 7 Oeste 13 Este 0 -- -- 83
2019-08-02 03:00:00 21.2 4 Nordeste 16 Este 0 -- -- 84
2019-08-02 02:00:00 21.7 5 Nordeste 14 Nordeste 0 -- -- 75
2019-08-02 01:00:00 23.2 4 Noroeste 12 Oeste 0 -- -- 68
2019-08-02 00:00:00 21.9 2 Norte 11 Este 0 -- -- 82
2019-08-01 23:00:00 22.2 8 Este 16 Norte 0 -- -- 79
2019-08-01 22:00:00 23.8 8 Nordeste 17 Este 0 -- -- 69
2019-08-01 21:00:00 26.2 7 Nordeste 24 Nordeste 0 -- -- 55
2019-08-01 20:00:00 27.4 13 Nordeste 27 Este 0 -- -- 48
2019-08-01 19:00:00 29.2 13 Nordeste 31 Este 0 -- -- 42
2019-08-01 18:00:00 29.6 19 Nordeste 34 Este 0 -- -- 41
2019-08-01 17:00:00 31.2 12 Nordeste 23 Este 0 -- -- 37
2019-08-01 16:00:00 31.8 11 Nordeste 25 Este 0 -- -- 38
2019-08-01 15:00:00 31.3 9 Nordeste 24 Nordeste 0 -- -- 37
2019-08-01 14:00:00 30 4 Nordeste 20 Nordeste 0 -- -- 38
2019-08-01 13:00:00 27.4 11 Nordeste 31 Este 0 -- -- 42
2019-08-01 12:00:00 26.1 5 Norte 12 Noroeste 0 -- -- 46
2019-08-01 11:00:00 25.5 2 Nordeste 20 Este 0 -- -- 47
2019-08-01 10:00:00 24.1 9 Nordeste 25 Nordeste 0 -- -- 55
2019-08-01 09:00:00 21.7 2 Noroeste 14 Oeste 0 -- -- 66
2019-08-01 08:00:00 17.7 4 Noroeste 9 Nordeste 0 -- -- 81
2019-08-01 07:00:00 17.5 0 Calma 8 Oeste 0 -- -- 84
2019-08-01 06:00:00 18.7 0 Calma 8 Oeste 0 -- -- 79
2019-08-01 05:00:00 18.7 0 Calma 6 Noroeste 0 -- -- 79
2019-08-01 04:00:00 18.9 3 Noroeste 8 Nordeste 0 -- -- 80
2019-08-01 03:00:00 19.8 2 Nordeste 6 Este 0 -- -- 82
2019-08-01 02:00:00 19.5 2 Nordeste 7 Nordeste 0 -- -- 81
2019-08-01 01:00:00 20.3 2 Norte 12 Nordeste 0 -- -- 79
2019-08-01 00:00:00 20.6 5 Nordeste 30 Este 0 -- -- 78
2019-07-31 23:00:00 21.9 7 Nordeste 18 Nordeste 0 -- -- 69
2019-07-31 22:00:00 23.5 13 Nordeste 29 Este 0 -- -- 63
2019-07-31 21:00:00 25.2 14 Este 27 Este 0 -- -- 56
2019-07-31 20:00:00 27.3 14 Nordeste 33 Este 0 -- -- 49
2019-07-31 19:00:00 29 17 Nordeste 34 Nordeste 0 -- -- 46
2019-07-31 18:00:00 30.4 17 Nordeste 31 Este 0 -- -- 43
2019-07-31 17:00:00 30.1 13 Nordeste 30 Este 0 -- -- 42
2019-07-31 16:00:00 29.4 16 Este 40 Este 0 -- -- 45
2019-07-31 15:00:00 28.9 18 Nordeste 33 Este 0 -- -- 42
2019-07-31 14:00:00 27.6 17 Nordeste 31 Este 0 -- -- 45
2019-07-31 13:00:00 25.5 10 Nordeste 34 Este 0 -- -- 50
2019-07-31 12:00:00 24.1 20 Nordeste 37 Nordeste 0 -- -- 53
2019-07-31 11:00:00 23.8 21 Este 42 Nordeste 0 -- -- 49
2019-07-31 10:00:00 22.1 0 Calma 27 Este 0 -- -- 60
2019-07-31 09:00:00 21.6 13 Nordeste 35 Nordeste 0 -- -- 60
2019-07-31 08:00:00 20.9 12 Nordeste 25 Nordeste 0 -- -- 65
2019-07-31 07:00:00 21.3 3 Nordeste 10 Norte 0 -- -- 61
2019-07-31 06:00:00 22 3 Noroeste 16 Oeste 0 -- -- 61
2019-07-31 05:00:00 22.1 4 Noroeste 14 Nordeste 0 -- -- 55
2019-07-31 04:00:00 20.7 8 Nordeste 19 Este 0 -- -- 72
2019-07-31 03:00:00 20.3 6 Nordeste 17 Nordeste 0 -- -- 71
2019-07-31 02:00:00 20.8 10 Este 31 Nordeste 0 -- -- 71
2019-07-31 01:00:00 22 8 Nordeste 17 Nordeste 0 -- -- 60
2019-07-31 00:00:00 22.6 6 Nordeste 20 Este 0 -- -- 56
2019-07-30 23:00:00 24.7 6 Nordeste 18 Nordeste 0 -- -- 48
2019-07-30 22:00:00 25.6 6 Nordeste 27 Este 0 -- -- 48
2019-07-30 21:00:00 27.2 13 Este 30 Este 0 -- -- 43
2019-07-30 20:00:00 28.3 15 Nordeste 39 Este 0 -- -- 40
2019-07-30 19:00:00 29.9 19 Nordeste 39 Nordeste 0 -- -- 38
2019-07-30 18:00:00 31.1 18 Nordeste 37 Este 0 -- -- 36
2019-07-30 17:00:00 31.5 18 Este 42 Este 0 -- -- 36
2019-07-30 16:00:00 32 18 Este 41 Este 0 -- -- 35
2019-07-30 15:00:00 32.5 18 Nordeste 35 Este 0 -- -- 34
2019-07-30 14:00:00 31.5 16 Nordeste 40 Nordeste 0 -- -- 34
2019-07-30 13:00:00 31.5 14 Nordeste 34 Este 0 -- -- 35
2019-07-30 12:00:00 31.1 12 Nordeste 26 Este 0 -- -- 35
2019-07-30 11:00:00 29.6 3 Norte 13 Norte 0 -- -- 36
2019-07-30 10:00:00 27.9 4 Norte 12 Noroeste 0 -- -- 38
2019-07-30 09:00:00 25.4 4 Noroeste 12 Noroeste 0 -- -- 42
2019-07-30 08:00:00 22.3 5 Noroeste 15 Noroeste 0 -- -- 44
2019-07-30 07:00:00 21.6 7 Noroeste 16 Norte 0 -- -- 44
2019-07-30 06:00:00 22 6 Noroeste 18 Noroeste 0 -- -- 44
2019-07-30 05:00:00 21.9 7 Noroeste 17 Oeste 0 -- -- 43
2019-07-30 04:00:00 24.1 4 Noroeste 18 Norte 0 -- -- 42
2019-07-30 03:00:00 23.6 8 Noroeste 13 Noroeste 0 -- -- 42
2019-07-30 02:00:00 24 3 Norte 14 Norte 0 -- -- 42
2019-07-30 01:00:00 25 4 Noroeste 15 Oeste 0 -- -- 41
2019-07-30 00:00:00 25.4 4 Noroeste 9 Noroeste 0 -- -- 45
2019-07-29 23:00:00 25.9 3 Noroeste 10 Norte 0 -- -- 46
2019-07-29 22:00:00 26.6 3 Nordeste 16 Nordeste 0 -- -- 46
2019-07-29 21:00:00 27.5 7 Nordeste 22 Este 0 -- -- 42
2019-07-29 20:00:00 28.3 12 Nordeste 27 Este 0 -- -- 42
2019-07-29 19:00:00 30.1 13 Nordeste 35 Este 0 -- -- 40
2019-07-29 18:00:00 29.9 13 Nordeste 31 Nordeste 0 -- -- 42
2019-07-29 17:00:00 30.2 15 Nordeste 29 Nordeste 0 -- -- 42
2019-07-29 16:00:00 31 13 Nordeste 28 Nordeste 0 -- -- 39
2019-07-29 15:00:00 30.7 12 Nordeste 29 Este 0 -- -- 38
2019-07-29 14:00:00 31.2 9 Nordeste 24 Este 0 -- -- 39
2019-07-29 13:00:00 30.8 9 Nordeste 24 Este 0 -- -- 39
2019-07-29 12:00:00 30 7 Nordeste 15 Nordeste 0 -- -- 39
2019-07-29 11:00:00 29.4 4 Nordeste 11 Norte 0 -- -- 43
2019-07-29 10:00:00 26.7 3 Norte 11 Noroeste 0 -- -- 48
2019-07-29 09:00:00 23.9 5 Noroeste 14 Noroeste 0 -- -- 53
2019-07-29 08:00:00 21.4 7 Noroeste 14 Noroeste 0 -- -- 57
2019-07-29 07:00:00 19.9 3 Oeste 10 Oeste 0 -- -- 62
2019-07-29 06:00:00 19.3 6 Oeste 9 Oeste 0 -- -- 63
2019-07-29 05:00:00 19.1 0 Calma 6 Noroeste 0 -- -- 64
2019-07-29 04:00:00 20.3 4 Noroeste 7 Oeste 0 -- -- 60
2019-07-29 03:00:00 21.1 4 Noroeste 6 Oeste 0 -- -- 59
2019-07-29 02:00:00 21.8 0 Calma 7 Oeste 0 -- -- 57
2019-07-29 01:00:00 22.2 2 Oeste 10 Noroeste 0 -- -- 57
2019-07-29 00:00:00 22.7 2 Noroeste 7 Norte 0 -- -- 54
2019-07-28 23:00:00 23.3 3 Norte 12 Nordeste 0 -- -- 54
2019-07-28 22:00:00 24.2 6 Este 23 Este 0 -- -- 50
2019-07-28 21:00:00 24.9 13 Este 29 Este 0 -- -- 49
2019-07-28 20:00:00 25.4 16 Este 31 Nordeste 0 -- -- 49
2019-07-28 19:00:00 27.1 17 Nordeste 30 Este 0 -- -- 46
2019-07-28 18:00:00 27.5 16 Nordeste 33 Nordeste 0 -- -- 45
2019-07-28 17:00:00 27.6 16 Este 33 Este 0 -- -- 44
2019-07-28 16:00:00 28.5 14 Nordeste 36 Nordeste 0 -- -- 42
2019-07-28 15:00:00 27.7 14 Nordeste 35 Este 0 -- -- 42
2019-07-28 14:00:00 28.2 13 Nordeste 34 Este 0 -- -- 43
2019-07-28 13:00:00 26.8 17 Este 33 Nordeste 0 -- -- 43
2019-07-28 12:00:00 26.3 16 Nordeste 32 Este 0 -- -- 45
2019-07-28 11:00:00 25.7 13 Nordeste 26 Este 0 -- -- 49
2019-07-28 10:00:00 23.4 3 Norte 12 Nordeste 0 -- -- 54
2019-07-28 09:00:00 21.8 3 Norte 11 Noroeste 0 -- -- 57
2019-07-28 08:00:00 19.8 4 Norte 15 Noroeste 0 -- -- 60
2019-07-28 07:00:00 18.4 5 Norte 12 Oeste 0 -- -- 62
2019-07-28 06:00:00 19.1 6 Noroeste 15 Noroeste 0 -- -- 61
2019-07-28 05:00:00 19.3 6 Noroeste 13 Norte 0 -- -- 59
2019-07-28 04:00:00 20.1 3 Norte 15 Noroeste 0 -- -- 56
2019-07-28 03:00:00 20.9 6 Norte 19 Noroeste 0 -- -- 53
2019-07-28 02:00:00 21.3 9 Noroeste 18 Norte 0 -- -- 54
2019-07-28 01:00:00 21.8 6 Noroeste 18 Noroeste 0 -- -- 53
2019-07-28 00:00:00 22.5 8 Noroeste 19 Norte 0 -- -- 50
2019-07-27 23:00:00 23.3 7 Noroeste 24 Noroeste 0 -- -- 48
2019-07-26 12:00:00 29.8 8 Norte 18 Norte 0 -- -- 38
2019-07-26 11:00:00 28.5 8 Noroeste 22 Noroeste 0 -- -- 44
2019-07-26 10:00:00 26.6 9 Noroeste 21 Noroeste 0 -- -- 49
2019-07-26 09:00:00 25.3 8 Noroeste 23 Norte 0 -- -- 56
2019-07-26 08:00:00 22.4 6 Noroeste 14 Oeste 0 -- -- 61
2019-07-26 07:00:00 20.9 5 Noroeste 11 Oeste 0 -- -- 64
2019-07-26 06:00:00 21.4 6 Noroeste 12 Noroeste 0 -- -- 57
2019-07-26 05:00:00 21.3 6 Noroeste 11 Oeste 0 -- -- 54
2019-07-26 04:00:00 22.5 4 Noroeste 10 Oeste 0 -- -- 52
2019-07-26 03:00:00 22 3 Noroeste 9 Noroeste 0 -- -- 61
2019-07-26 02:00:00 23 4 Noroeste 10 Oeste 0 -- -- 57
2019-07-26 01:00:00 22.7 0 Calma 8 Este 0 -- -- 62
2019-07-26 00:00:00 23.7 5 Nordeste 8 Este 0 -- -- 59
2019-07-25 23:00:00 24.7 4 Nordeste 17 Nordeste 0 -- -- 53
2019-07-25 22:00:00 25.9 8 Nordeste 25 Este 0 -- -- 46
2019-07-25 21:00:00 28.2 13 Este 31 Este 0 -- -- 39
2019-07-25 20:00:00 29.1 15 Este 38 Este 0 -- -- 36
2019-07-25 19:00:00 30.5 19 Este 39 Este 0 -- -- 34
2019-07-25 18:00:00 31.3 18 Nordeste 41 Nordeste 0 -- -- 32
2019-07-25 17:00:00 32.1 18 Nordeste 37 Nordeste 0 -- -- 32
2019-07-25 16:00:00 32 17 Nordeste 41 Este 0 -- -- 31
2019-07-25 15:00:00 33 17 Nordeste 35 Nordeste 0 -- -- 30
2019-07-25 14:00:00 32.5 17 Nordeste 36 Este 0 -- -- 29
2019-07-25 13:00:00 31.9 16 Nordeste 31 Nordeste 0 -- -- 29
2019-07-25 12:00:00 31 15 Nordeste 31 Nordeste 0 -- -- 29
2019-07-25 11:00:00 30.1 15 Este 29 Este 0 -- -- 31
2019-07-25 10:00:00 28.7 8 Nordeste 15 Este 0 -- -- 32
2019-07-25 09:00:00 24.7 0 Calma 7 Noroeste 0 -- -- 36
2019-07-25 08:00:00 23.3 0 Calma 14 Oeste 0 -- -- 35
2019-07-25 07:00:00 21.3 4 Noroeste 8 Oeste 0 -- -- 38
2019-07-25 06:00:00 21.6 0 Calma 10 Oeste 0 -- -- 37
2019-07-25 05:00:00 23 2 Norte 6 Noroeste 0 -- -- 37
2019-07-25 04:00:00 24 2 Nordeste 11 Nordeste 0 -- -- 35
2019-07-25 03:00:00 24.3 2 Nordeste 7 Norte 0 -- -- 35
2019-07-25 02:00:00 24.2 0 Calma 10 Nordeste 0 -- -- 36
2019-07-25 01:00:00 24.8 7 Este 16 Este 0 -- -- 35
2019-07-25 00:00:00 26.8 9 Nordeste 23 Nordeste 0 -- -- 31
2019-07-24 23:00:00 27.6 12 Nordeste 26 Nordeste 0 -- -- 31
2019-07-24 22:00:00 27.8 13 Nordeste 28 Nordeste 0 -- -- 31
2019-07-24 21:00:00 29.1 14 Nordeste 32 Este 0 -- -- 30
2019-07-24 20:00:00 30.3 13 Nordeste 34 Este 0 -- -- 31
2019-07-24 19:00:00 31.8 14 Nordeste 40 Este 0 -- -- 29
2019-07-24 18:00:00 32.5 15 Nordeste 40 Nordeste 0 -- -- 27
2019-07-24 17:00:00 33.1 18 Nordeste 42 Nordeste 0 -- -- 26
2019-07-24 16:00:00 33.3 16 Nordeste 36 Nordeste 0 -- -- 26
2019-07-24 15:00:00 33.1 19 Este 42 Este 0 -- -- 27
2019-07-24 14:00:00 32.7 16 Nordeste 44 Este 0 -- -- 27
2019-07-24 13:00:00 32.4 18 Nordeste 42 Nordeste 0 -- -- 27
2019-07-24 12:00:00 30.8 14 Nordeste 38 Este 0 -- -- 27
2019-07-24 11:00:00 30.7 14 Nordeste 32 Nordeste 0 -- -- 27
2019-07-24 10:00:00 29.4 9 Nordeste 16 Nordeste 0 -- -- 31
2019-07-24 09:00:00 27.4 2 Nordeste 7 Nordeste 0 -- -- 35
2019-07-24 08:00:00 24.3 0 Calma 4 Noroeste 0 -- -- 37
2019-07-24 07:00:00 23.4 0 Calma 10 Noroeste 0 -- -- 36
2019-07-24 06:00:00 23.9 0 Calma 6 Norte 0 -- -- 36
2019-07-24 05:00:00 22.9 0 Calma 4 Nordeste 0 -- -- 39
2019-07-24 04:00:00 23.4 0 Calma 9 Norte 0 -- -- 38
2019-07-24 03:00:00 23.4 3 Norte 8 Nordeste 0 -- -- 38
2019-07-24 02:00:00 23.5 0 Calma 9 Norte 0 -- -- 37
2019-07-24 01:00:00 24.1 0 Calma 13 Nordeste 0 -- -- 35
2019-07-24 00:00:00 25.4 6 Nordeste 16 Este 0 -- -- 32
2019-07-23 23:00:00 26.8 7 Nordeste 22 Noroeste 0 -- -- 28
2019-07-23 22:00:00 29 10 Norte 24 Nordeste 0 -- -- 25
2019-07-23 21:00:00 29.9 10 Norte 29 Norte 0 -- -- 25
2019-07-23 20:00:00 30.7 11 Nordeste 35 Nordeste 0 -- -- 25
2019-07-23 19:00:00 31.9 15 Nordeste 37 Este 0 -- -- 25
2019-07-23 18:00:00 32.4 15 Nordeste 43 Este 0 -- -- 24
2019-07-23 17:00:00 33 15 Nordeste 41 Este 0 -- -- 24
2019-07-23 16:00:00 33.4 17 Nordeste 43 Nordeste 0 -- -- 24
2019-07-23 15:00:00 33.3 16 Nordeste 45 Este 0 -- -- 24
2019-07-23 14:00:00 32.5 19 Este 44 Este 0 -- -- 24
2019-07-23 13:00:00 32.3 18 Nordeste 41 Este 0 -- -- 25
2019-07-23 12:00:00 31.7 16 Nordeste 35 Este 0 -- -- 26
2019-07-23 11:00:00 31 14 Nordeste 35 Nordeste 0 -- -- 27
2019-07-23 10:00:00 30.4 14 Nordeste 32 Este 0 -- -- 27
2019-07-23 09:00:00 27.4 9 Nordeste 21 Este 0 -- -- 31
2019-07-23 08:00:00 24.5 7 Este 27 Nordeste 0 -- -- 34
2019-07-23 07:00:00 24.7 10 Nordeste 25 Nordeste 0 -- -- 32
2019-07-23 06:00:00 26.4 13 Nordeste 27 Nordeste 0 -- -- 33
2019-07-23 05:00:00 23.2 6 Nordeste 28 Norte 0 -- -- 38
2019-07-23 04:00:00 26.2 9 Norte 25 Noroeste 0 -- -- 34
2019-07-23 03:00:00 22.7 0 Calma 10 Nordeste 0 -- -- 56
2019-07-23 02:00:00 22.6 4 Nordeste 12 Nordeste 0 -- -- 60
2019-07-23 01:00:00 23.7 5 Nordeste 20 Nordeste 0 -- -- 57
2019-07-23 00:00:00 23.3 9 Nordeste 26 Nordeste 0 -- -- 63
2019-07-22 23:00:00 24.8 14 Este 30 Este 0 -- -- 56
2019-07-22 22:00:00 26.7 12 Nordeste 35 Nordeste 0 -- -- 46
2019-07-22 21:00:00 29.7 11 Nordeste 29 Nordeste 0 -- -- 34
2019-07-22 20:00:00 30.9 14 Nordeste 30 Nordeste 0 -- -- 31
2019-07-22 19:00:00 31.2 15 Nordeste 32 Nordeste 0 -- -- 32
2019-07-22 18:00:00 32.3 15 Nordeste 37 Nordeste 0 -- -- 31
2019-07-22 17:00:00 32.7 16 Nordeste 37 Este 0 -- -- 30
2019-07-22 16:00:00 33.4 14 Nordeste 39 Nordeste 0 -- -- 29
2019-07-22 15:00:00 32.9 16 Nordeste 37 Este 0 -- -- 27
2019-07-22 14:00:00 33.2 15 Nordeste 33 Este 0 -- -- 27
2019-07-22 13:00:00 31.7 15 Este 37 Nordeste 0 -- -- 27
2019-07-22 12:00:00 29.8 15 Nordeste 33 Nordeste 0 -- -- 29
2019-07-22 11:00:00 28.8 15 Nordeste 26 Este 0 -- -- 31
2019-07-22 10:00:00 26.8 9 Nordeste 16 Este 0 -- -- 41
2019-07-22 09:00:00 24.1 7 Nordeste 15 Nordeste 0 -- -- 53
2019-07-22 08:00:00 20.8 0 Calma 8 Norte 0 -- -- 73
2019-07-22 07:00:00 20.5 2 Noroeste 5 Norte 0 -- -- 72
2019-07-22 06:00:00 21 0 Calma 5 Norte 0 -- -- 78
2019-07-22 05:00:00 21.7 0 Calma 6 Norte 0 -- -- 71
2019-07-22 04:00:00 21.5 2 Norte 11 Norte 0 -- -- 83
2019-07-22 03:00:00 22 4 Norte 12 Nordeste 0 -- -- 81
2019-07-22 02:00:00 22 0 Calma 9 Noroeste 0 -- -- 83
2019-07-22 01:00:00 22.4 3 Norte 10 Norte 0 -- -- 83
2019-07-22 00:00:00 22.4 2 Nordeste 13 Este 0 -- -- 86
2019-07-21 23:00:00 23.1 7 Nordeste 28 Este 0 -- -- 80
2019-07-21 22:00:00 24.4 14 Este 32 Nordeste 0 -- -- 68
2019-07-21 21:00:00 26.7 15 Nordeste 31 Este 0 -- -- 57
2019-07-21 20:00:00 28.6 14 Este 26 Nordeste 0 -- -- 50
2019-07-21 19:00:00 29 13 Este 36 Nordeste 0 -- -- 50
2019-07-21 18:00:00 31.1 15 Nordeste 30 Nordeste 0 -- -- 46
2019-07-21 17:00:00 30.8 16 Nordeste 35 Este 0 -- -- 44
2019-07-21 16:00:00 32.1 14 Nordeste 39 Este 0 -- -- 39
2019-07-21 15:00:00 32.5 15 Nordeste 33 Este 0 -- -- 36
2019-07-21 14:00:00 31.7 15 Nordeste 32 Este 0 -- -- 35
2019-07-21 13:00:00 30.1 13 Nordeste 33 Este 0 -- -- 38
2019-07-21 12:00:00 28.7 15 Nordeste 30 Nordeste 0 -- -- 41
2019-07-21 11:00:00 28.4 12 Nordeste 25 Este 0 -- -- 44
2019-07-21 10:00:00 27.7 4 Norte 10 Noroeste 0 -- -- 49
2019-07-21 09:00:00 24.8 3 Noroeste 10 Norte 0 -- -- 55
2019-07-21 08:00:00 23.4 2 Norte 12 Norte 0 -- -- 57
2019-07-21 07:00:00 23.1 5 Noroeste 17 Oeste 0 -- -- 54
2019-07-21 06:00:00 24.9 4 Noroeste 12 Oeste 0 -- -- 47
2019-07-21 05:00:00 24 0 Calma 6 Noroeste 0 -- -- 56
2019-07-21 04:00:00 23.4 0 Calma 6 Noroeste 0 -- -- 60
2019-07-21 03:00:00 24 2 Noroeste 6 Oeste 0 -- -- 68
2019-07-21 02:00:00 24.3 2 Noroeste 6 Norte 0 -- -- 67
2019-07-21 01:00:00 24.6 0 Calma 10 Este 0 -- -- 73
2019-07-21 00:00:00 24.7 5 Nordeste 13 Este 0 -- -- 72
2019-07-20 23:00:00 25.5 7 Este 19 Este 0 -- -- 69
2019-07-20 22:00:00 26.2 11 Este 30 Este 0 -- -- 64
2019-07-20 21:00:00 27.2 15 Este 31 Este 0 -- -- 59
2019-07-20 20:00:00 28.5 15 Nordeste 32 Este 0 -- -- 52
2019-07-20 19:00:00 30.7 16 Nordeste 37 Nordeste 0 -- -- 44
2019-07-20 18:00:00 31.7 17 Este 30 Este 0 -- -- 40
2019-07-20 17:00:00 32.3 16 Este 32 Este 0 -- -- 38
2019-07-20 16:00:00 32.1 18 Este 34 Este 0 -- -- 36
2019-07-20 15:00:00 32.4 14 Nordeste 35 Nordeste 0 -- -- 33
2019-07-20 14:00:00 32.5 15 Nordeste 31 Nordeste 0 -- -- 31
2019-07-20 13:00:00 33.5 11 Nordeste 23 Este 0 -- -- 28
2019-07-20 12:00:00 33 8 Nordeste 19 Nordeste 0 -- -- 28
2019-07-20 11:00:00 31.6 3 Nordeste 8 Nordeste 0 -- -- 31
2019-07-20 10:00:00 27.7 2 Norte 7 Este 0 -- -- 37
2019-07-20 09:00:00 24.6 0 Calma 13 Oeste 0 -- -- 42
2019-07-20 08:00:00 21.4 3 Noroeste 10 Oeste 0 -- -- 45
2019-07-20 07:00:00 21.9 3 Noroeste 14 Oeste 0 -- -- 45
2019-07-20 06:00:00 22.4 0 Calma 5 Norte 0 -- -- 49
2019-07-20 05:00:00 22.2 0 Calma 6 Este 0 -- -- 53
2019-07-20 04:00:00 22.8 0 Calma 5 Norte 0 -- -- 54
2019-07-20 03:00:00 22.2 0 Calma 5 Norte 0 -- -- 59
2019-07-20 02:00:00 22.5 3 Este 14 Nordeste 0 -- -- 58
2019-07-20 01:00:00 23.3 5 Nordeste 20 Nordeste 0 -- -- 51
2019-07-20 00:00:00 24.6 12 Este 27 Este 0 -- -- 44
2019-07-19 23:00:00 25.7 12 Este 26 Este 0 -- -- 40
2019-07-19 22:00:00 26.9 13 Este 23 Este 0 -- -- 37
2019-07-19 21:00:00 28.2 10 Nordeste 23 Nordeste 0 -- -- 35
2019-07-19 20:00:00 29.9 11 Este 26 Nordeste 0 -- -- 31
2019-07-19 19:00:00 31.6 12 Nordeste 31 Este 0 -- -- 30
2019-07-19 18:00:00 31.9 15 Nordeste 32 Nordeste 0 -- -- 28
2019-07-19 17:00:00 31.7 15 Nordeste 33 Nordeste 0 -- -- 28
2019-07-19 16:00:00 32.3 18 Nordeste 39 Este 0 -- -- 27
2019-07-19 15:00:00 32.1 15 Nordeste 35 Este 0 -- -- 27
2019-07-19 14:00:00 31.9 17 Nordeste 37 Este 0 -- -- 28
2019-07-19 13:00:00 30.7 16 Nordeste 36 Nordeste 0 -- -- 31
2019-07-19 12:00:00 30.4 18 Nordeste 36 Este 0 -- -- 32
2019-07-19 11:00:00 29.3 14 Nordeste 29 Este 0 -- -- 33
2019-07-19 10:00:00 27.8 9 Este 20 Este 0 -- -- 37
2019-07-19 09:00:00 25.2 4 Nordeste 12 Este 0 -- -- 42
2019-07-19 08:00:00 20.3 0 Calma 6 Noroeste 0 -- -- 46
2019-07-19 07:00:00 18.5 0 Calma 5 Este 0 -- -- 49
2019-07-19 06:00:00 18.9 0 Calma 3 Oeste 0 -- -- 48
2019-07-19 05:00:00 20.1 0 Calma 6 Noroeste 0 -- -- 46
2019-07-19 04:00:00 21 0 Calma 11 Oeste 0 -- -- 47
2019-07-19 03:00:00 21.7 3 Oeste 13 Oeste 0 -- -- 46
2019-07-19 02:00:00 22.3 3 Norte 8 Noroeste 0 -- -- 42
2019-07-19 01:00:00 22.1 2 Nordeste 11 Nordeste 0 -- -- 50
2019-07-19 00:00:00 22.5 4 Nordeste 10 Nordeste 0 -- -- 49